NCAR-RAP Real-Time Weather Data

Output produced by METARs form (23 July 2018  17:08 UTC)
found at http://weather.rap.ucar.edu/surface/
 
KHCO 231655Z AUTO 28014KT 10SM SCT040 24/13 A3004 RMK AO2
KHCO 231635Z AUTO 28012G16KT 10SM SCT036 23/14 A3004 RMK AO2
KHCO 231615Z AUTO 27012G15KT 10SM SCT034 23/15 A3004 RMK AO2
KHCO 231555Z AUTO 28012KT 10SM CLR 22/16 A3004 RMK AO2
KHCO 231535Z AUTO 28010KT 10SM CLR 22/16 A3004 RMK AO2
KHCO 231515Z AUTO 29009KT 10SM CLR 22/16 A3005 RMK AO2
 
KROX 231655Z AUTO 29009G15KT 10SM CLR 23/18 A3003 RMK AO2
KROX 231635Z AUTO 28007KT 10SM CLR 23/18 A3003 RMK AO2
KROX 231615Z AUTO 25011KT 10SM CLR 23/18 A3003 RMK AO2
KROX 231555Z AUTO 25005KT 10SM CLR 23/18 A3003 RMK AO2
KROX 231535Z AUTO 25005KT 10SM CLR 22/18 A3003 RMK AO2
KROX 231516Z AUTO 25007KT 10SM CLR 21/17 A3003 RMK AO2
KROX 231515Z AUTO 25007KT 10SM CLR 21/17 A3003 RMK AO2
 
KRRT 231643Z AUTO 25009KT 10SM CLR 23/18 A3002 RMK AO2
KRRT 231625Z AUTO 26008KT 10SM CLR 23/17 A3002 RMK AO2
KRRT 231606Z AUTO 26010KT 10SM CLR 23/17 A3002 RMK AO2
KRRT 231545Z AUTO 23007KT 10SM CLR 22/18 A3003 RMK AO2
KRRT 231527Z AUTO 23007KT 10SM CLR 22/18 A3003 RMK AO2
 
KBDE 231653Z AUTO 30012KT 10SM CLR 26/13 A3001 RMK AO2 SLP160 T02610133
KBDE 231553Z AUTO 30007KT 10SM CLR 25/15 A3001 RMK AO2 SLP162 T02500150
 
KGFK 231653Z 28011G17KT 10SM SCT038 24/17 A3006 RMK AO2 SLP177 T02440167
KGFK 231553Z 31010KT 10SM FEW030 23/16 A3007 RMK AO2 SLP180 T02280156
 
KRDR 231656Z AUTO 31013KT 10SM FEW038 23/15 A3008 RMK AO2 SLP188 T02330146 $
KRDR 231556Z AUTO 32008KT 10SM CLR 23/16 A3008 RMK AO2 SLP189 T02250156 $
 
KCKN 231655Z AUTO 30012G18KT 10SM SCT033 23/15 A3008 RMK AO2
KCKN 231635Z AUTO 31011KT 10SM CLR 23/16 A3008 RMK AO2
KCKN 231615Z AUTO 29010KT 10SM CLR 23/16 A3008 RMK AO2
KCKN 231555Z AUTO 31011KT 10SM CLR 22/16 A3008 RMK AO2
KCKN 231535Z AUTO 31008KT 10SM CLR 22/16 A3008 RMK AO2
KCKN 231515Z AUTO 30009KT 10SM CLR 21/16 A3008 RMK AO2
 
KFSE 231655Z AUTO 27011KT 10SM CLR 23/15 A3008 RMK AO2
KFSE 231635Z AUTO 27007KT 10SM CLR 23/14 A3009 RMK AO2
KFSE 231615Z AUTO 25005KT 10SM CLR 23/14 A3008 RMK AO2
KFSE 231555Z AUTO 28006KT 10SM CLR 22/14 A3009 RMK AO2
KFSE 231535Z AUTO 27004KT 10SM CLR 22/15 A3009 RMK AO2
KFSE 231515Z AUTO 28003KT 10SM CLR 22/14 A3009 RMK AO2
 
KTVF 231656Z AUTO 28008G16KT 10SM FEW031 22/15 A3008 RMK AO2 SLP183 T02170150
KTVF 231556Z AUTO 29011KT 10SM CLR 22/15 A3008 RMK AO2 SLP185 T02170150
 
KVWU 231655Z AUTO 24009KT 10SM CLR 24/17 A3003 RMK AO2
KVWU 231635Z AUTO 23009KT 10SM CLR 24/18 A3003 RMK AO2
KVWU 231615Z AUTO 24008KT 10SM CLR 24/18 A3003 RMK AO2
KVWU 231555Z AUTO 25007KT 10SM CLR 23/18 A3004 RMK AO2
KVWU 231535Z AUTO 27008KT 10SM CLR 23/18 A3004 RMK AO2
KVWU 231515Z AUTO 26007KT 10SM CLR 23/18 A3004 RMK AO2
 
KBJI 231655Z AUTO 28009KT 10SM SCT046 25/13 A3006 RMK AO2 T02480131
KBJI 231635Z AUTO 30007G16KT 270V330 10SM CLR 24/13 A3006 RMK AO2 T02440125
KBJI 231615Z AUTO 32009G15KT 10SM CLR 24/14 A3006 RMK AO2 T02390135
KBJI 231555Z AUTO 31007KT 10SM CLR 24/14 A3006 RMK AO2 T02380144
KBJI 231535Z AUTO 32010KT 10SM CLR 23/15 A3006 RMK AO2 T02340151
KBJI 231515Z AUTO 30013KT 10SM SCT019 22/16 A3007 RMK AO2 T02230156
 
KFAR 231653Z 30012KT 10SM CLR 26/15 A3009 RMK AO2 SLP185 T02560150
KFAR 231553Z 31012KT 10SM CLR 24/16 A3010 RMK AO2 SLP189 T02390156
 
KJKJ 231655Z AUTO 32006G16KT 10SM CLR 24/15 A3010 RMK AO2
KJKJ 231635Z AUTO 30012G17KT 10SM CLR 24/15 A3010 RMK AO2
KJKJ 231615Z AUTO 32009KT 10SM CLR 24/16 A3010 RMK AO2
KJKJ 231555Z AUTO 32006KT 10SM CLR 23/15 A3010 RMK AO2
KJKJ 231535Z AUTO 34006KT 10SM CLR 23/15 A3011 RMK AO2
KJKJ 231515Z AUTO 35005KT 10SM CLR 22/14 A3011 RMK AO2
 
KDTL 231655Z AUTO 31008KT 10SM CLR 23/15 A3011 RMK AO2
KDTL 231635Z AUTO 33009KT 10SM CLR 23/15 A3012 RMK AO2
KDTL 231615Z AUTO 30008KT 10SM CLR 22/15 A3012 RMK AO2
KDTL 231555Z AUTO 33010G14KT 10SM CLR 22/16 A3012 RMK AO2
KDTL 231535Z AUTO 33008KT 10SM CLR 22/15 A3012 RMK AO2
KDTL 231515Z AUTO 32006KT 10SM CLR 22/16 A3011 RMK AO2
 
KPKD 231653Z AUTO 32011KT 10SM CLR 25/14 A3007 RMK AO2 SLP178 T02500139
KPKD 231553Z AUTO 32012KT 10SM FEW026 24/16 A3008 RMK AO2 SLP180 T02390161
 
KSAZ 231655Z AUTO 32009G15KT 10SM SCT023 SCT042 25/17 A3007 RMK AO2
KSAZ 231635Z AUTO 30007KT 10SM SCT023 BKN031 BKN035 24/18 A3007 RMK AO2
KSAZ 231615Z AUTO 32007KT 10SM SCT021 BKN034 24/17 A3007 RMK AO2
KSAZ 231555Z AUTO 33007KT 10SM SCT019 SCT025 23/17 A3008 RMK AO2
KSAZ 231535Z AUTO 34006KT 10SM OVC023 22/18 A3008 RMK AO2
KSAZ 231515Z AUTO 33006KT 10SM OVC021 21/17 A3008 RMK AO2
 
KFFM 231655Z AUTO 34010G17KT 10SM CLR 24/16 A3011 RMK AO2
KFFM 231635Z AUTO 32007KT 285V345 10SM CLR 23/16 A3011 RMK AO2
KFFM 231615Z AUTO 34012G18KT 10SM CLR 23/15 A3011 RMK AO2
KFFM 231555Z AUTO 35012G18KT 10SM CLR 23/15 A3011 RMK AO2
KFFM 231535Z AUTO 33011KT 10SM CLR 22/16 A3011 RMK AO2
KFFM 231515Z AUTO 33010KT 10SM CLR 22/16 A3011 RMK AO2
 
KADC 231555Z AUTO 34012KT 10SM CLR 22/16 A3008 RMK AO2
 
KFGN 231655Z AUTO 25006KT 10SM SCT050 23/12 A2999 RMK AO2
KFGN 231635Z AUTO 25008KT 10SM SCT050 24/13 A2999 RMK AO2
KFGN 231615Z AUTO 24007KT 10SM CLR 24/12 A2999 RMK AO2
KFGN 231555Z AUTO 26006KT 10SM CLR 23/12 A2999 RMK AO2
KFGN 231535Z AUTO 23007KT 10SM CLR 23/14 A2999 RMK AO2
KFGN 231515Z AUTO 24005KT 10SM CLR 22/15 A2999 RMK AO2